San Francisco, CA (94110)

5:52 PM PDT on July 24, 2016 (GMT -0700)
| | Change Station

Elev -9999 ft 0.00 °N, 0.00 °E | Updated

Clear
Clear
57 °F
Feels Like 57 °F
N
13
Wind Variable Wind from West
Gusts mph

Today
High -- | Low -- °F
--% Chance of Precip.
Yesterday
High -- | Low -- °F
Precip. -- in
Pressure 29.87 in
Visibility 10.0 miles
Clouds Few 800 ft
Dew Point 53 °F
Humidity 87%
Rainfall --
Snow Depth Not available.
6:07 AM 8:24 PM
Waning Gibbous, 71% visible
METAR KSFO 242356Z 30020KT 10SM FEW008 18/11 A2986 RMK AO2 PK WND 29026/2355 SLP113 T01830106 10206 20183 55004
Pressure 29.87 in
Visibility 10.0 miles
Clouds Few 800 ft
Dew Point 53 °F
Humidity 87%
Rainfall --
Snow Depth Not available.
6:07 AM 8:24 PM
Waning Gibbous, 71% visible
METAR KSFO 242356Z 30020KT 10SM FEW008 18/11 A2986 RMK AO2 PK WND 29026/2355 SLP113 T01830106 10206 20183 55004

10-Day Weather Forecast

Almanac

Astronomy

Jul. 24, 2016 Rise Set
Actual Time
Civil Twilight
Nautical Twilight
Astronomical Twilight
Moon
Length of Visible Light
Length of Day
Tomorrow will be .
, % of the Moon is Illuminated

Today's Extremes

State Highs State Lows

Community

WunderPhotos

Upload Photos

1,927,218 photos uploaded!

WunderBlog® & News

Nearby

Air Quality

  Air Quality AQ Index Pollutant
Not available.

Snow Depth

Station Depth Elevation

Earthquake Activity

City Distance Mag. Time & Date
Minimum magnitude displayed is 2.5.

Coastal Water Temperatures

Place Temperature

Stations

Nearby Weather Stations

Station Location Temp. Windchill Dew Point Humidity Wind Precip. Elev Updated Type
                   

Watches & Warnings

There are currently no watches in effect.